sensor_id;sensor_type;location;lat;lon;timestamp;P1;durP1;ratioP1;P2;durP2;ratioP2
35891;SDS011;21993;42.672;23.296;2023-09-12T00:02:02;6.30;;;3.17;;
35891;SDS011;21993;42.672;23.296;2023-09-12T00:04:27;5.87;;;3.70;;
35891;SDS011;21993;42.672;23.296;2023-09-12T00:06:53;6.87;;;3.70;;
35891;SDS011;21993;42.672;23.296;2023-09-12T00:09:18;6.40;;;3.17;;
35891;SDS011;21993;42.672;23.296;2023-09-12T00:11:44;7.27;;;3.30;;
35891;SDS011;21993;42.672;23.296;2023-09-12T00:14:09;5.80;;;2.90;;
35891;SDS011;21993;42.672;23.296;2023-09-12T00:16:35;4.90;;;3.23;;
35891;SDS011;21993;42.672;23.296;2023-09-12T00:19:00;5.47;;;3.50;;
35891;SDS011;21993;42.672;23.296;2023-09-12T00:21:25;6.17;;;3.90;;
35891;SDS011;21993;42.672;23.296;2023-09-12T00:23:51;3.97;;;3.03;;
35891;SDS011;21993;42.672;23.296;2023-09-12T00:26:18;5.70;;;3.67;;
35891;SDS011;21993;42.672;23.296;2023-09-12T00:28:43;6.20;;;3.67;;
35891;SDS011;21993;42.672;23.296;2023-09-12T00:31:09;8.40;;;3.70;;
35891;SDS011;21993;42.672;23.296;2023-09-12T00:33:34;7.27;;;3.67;;
35891;SDS011;21993;42.672;23.296;2023-09-12T00:35:59;6.17;;;3.57;;
35891;SDS011;21993;42.672;23.296;2023-09-12T00:38:25;4.80;;;3.30;;
35891;SDS011;21993;42.672;23.296;2023-09-12T00:40:50;4.43;;;3.40;;
35891;SDS011;21993;42.672;23.296;2023-09-12T00:43:16;6.63;;;3.93;;
35891;SDS011;21993;42.672;23.296;2023-09-12T00:45:42;4.23;;;3.83;;
35891;SDS011;21993;42.672;23.296;2023-09-12T00:48:07;7.67;;;3.40;;
35891;SDS011;21993;42.672;23.296;2023-09-12T00:50:34;5.37;;;3.43;;
35891;SDS011;21993;42.672;23.296;2023-09-12T00:53:01;3.73;;;3.23;;
35891;SDS011;21993;42.672;23.296;2023-09-12T00:55:28;5.87;;;3.43;;
35891;SDS011;21993;42.672;23.296;2023-09-12T00:57:56;5.13;;;3.50;;
35891;SDS011;21993;42.672;23.296;2023-09-12T01:00:22;6.60;;;3.93;;
35891;SDS011;21993;42.672;23.296;2023-09-12T01:02:48;8.50;;;3.50;;
35891;SDS011;21993;42.672;23.296;2023-09-12T01:05:15;5.53;;;3.47;;
35891;SDS011;21993;42.672;23.296;2023-09-12T01:07:42;6.13;;;3.87;;
35891;SDS011;21993;42.672;23.296;2023-09-12T01:10:08;8.13;;;3.27;;
35891;SDS011;21993;42.672;23.296;2023-09-12T01:12:34;5.70;;;3.33;;
35891;SDS011;21993;42.672;23.296;2023-09-12T01:15:00;4.10;;;3.30;;
35891;SDS011;21993;42.672;23.296;2023-09-12T01:17:26;5.10;;;3.37;;
35891;SDS011;21993;42.672;23.296;2023-09-12T01:19:52;5.07;;;3.10;;
35891;SDS011;21993;42.672;23.296;2023-09-12T01:27:47;4.77;;;3.10;;
35891;SDS011;21993;42.672;23.296;2023-09-12T01:30:17;7.30;;;3.10;;
35891;SDS011;21993;42.672;23.296;2023-09-12T01:32:45;4.53;;;3.20;;
35891;SDS011;21993;42.672;23.296;2023-09-12T01:35:12;9.87;;;3.30;;
35891;SDS011;21993;42.672;23.296;2023-09-12T01:37:37;5.13;;;2.93;;
35891;SDS011;21993;42.672;23.296;2023-09-12T01:40:03;4.93;;;3.27;;
35891;SDS011;21993;42.672;23.296;2023-09-12T01:42:30;4.67;;;3.10;;
35891;SDS011;21993;42.672;23.296;2023-09-12T01:45:05;9.20;;;3.57;;
35891;SDS011;21993;42.672;23.296;2023-09-12T01:47:34;5.93;;;3.07;;
35891;SDS011;21993;42.672;23.296;2023-09-12T01:50:02;3.63;;;2.97;;
35891;SDS011;21993;42.672;23.296;2023-09-12T01:52:28;4.73;;;2.87;;
35891;SDS011;21993;42.672;23.296;2023-09-12T01:54:54;5.97;;;3.37;;
35891;SDS011;21993;42.672;23.296;2023-09-12T01:57:20;3.90;;;3.20;;
35891;SDS011;21993;42.672;23.296;2023-09-12T01:59:47;4.80;;;3.37;;
35891;SDS011;21993;42.672;23.296;2023-09-12T02:02:14;4.33;;;3.57;;
35891;SDS011;21993;42.672;23.296;2023-09-12T02:04:41;4.13;;;3.27;;
35891;SDS011;21993;42.672;23.296;2023-09-12T02:07:06;7.23;;;3.40;;
35891;SDS011;21993;42.672;23.296;2023-09-12T02:09:32;5.03;;;3.70;;
35891;SDS011;21993;42.672;23.296;2023-09-12T02:11:57;4.40;;;3.20;;
35891;SDS011;21993;42.672;23.296;2023-09-12T02:14:22;6.33;;;3.20;;
35891;SDS011;21993;42.672;23.296;2023-09-12T02:16:48;5.70;;;4.10;;
35891;SDS011;21993;42.672;23.296;2023-09-12T02:19:13;4.20;;;3.23;;
35891;SDS011;21993;42.672;23.296;2023-09-12T02:21:39;5.37;;;3.57;;
35891;SDS011;21993;42.672;23.296;2023-09-12T02:24:04;7.13;;;3.90;;
35891;SDS011;21993;42.672;23.296;2023-09-12T02:26:30;11.37;;;4.00;;
35891;SDS011;21993;42.672;23.296;2023-09-12T02:29:00;12.20;;;4.10;;
35891;SDS011;21993;42.672;23.296;2023-09-12T02:31:26;5.13;;;3.73;;
35891;SDS011;21993;42.672;23.296;2023-09-12T02:33:51;5.13;;;3.83;;
35891;SDS011;21993;42.672;23.296;2023-09-12T02:36:17;4.60;;;3.40;;
35891;SDS011;21993;42.672;23.296;2023-09-12T02:38:42;6.17;;;3.47;;
35891;SDS011;21993;42.672;23.296;2023-09-12T02:41:08;6.23;;;3.47;;
35891;SDS011;21993;42.672;23.296;2023-09-12T02:43:33;5.03;;;3.50;;
35891;SDS011;21993;42.672;23.296;2023-09-12T02:45:58;6.00;;;3.43;;
35891;SDS011;21993;42.672;23.296;2023-09-12T02:48:24;10.27;;;4.10;;
35891;SDS011;21993;42.672;23.296;2023-09-12T02:50:49;4.93;;;3.77;;
35891;SDS011;21993;42.672;23.296;2023-09-12T02:53:14;6.93;;;3.87;;
35891;SDS011;21993;42.672;23.296;2023-09-12T02:55:42;7.50;;;3.80;;
35891;SDS011;21993;42.672;23.296;2023-09-12T02:58:07;5.83;;;4.03;;
35891;SDS011;21993;42.672;23.296;2023-09-12T03:00:37;12.03;;;4.03;;
35891;SDS011;21993;42.672;23.296;2023-09-12T03:03:03;7.37;;;4.13;;
35891;SDS011;21993;42.672;23.296;2023-09-12T03:05:28;8.23;;;4.10;;
35891;SDS011;21993;42.672;23.296;2023-09-12T03:07:54;12.57;;;3.87;;
35891;SDS011;21993;42.672;23.296;2023-09-12T03:10:19;9.70;;;4.10;;
35891;SDS011;21993;42.672;23.296;2023-09-12T03:12:44;6.97;;;3.93;;
35891;SDS011;21993;42.672;23.296;2023-09-12T03:15:10;5.23;;;3.27;;
35891;SDS011;21993;42.672;23.296;2023-09-12T03:17:35;8.33;;;3.70;;
35891;SDS011;21993;42.672;23.296;2023-09-12T03:20:01;6.33;;;4.43;;
35891;SDS011;21993;42.672;23.296;2023-09-12T03:22:29;5.50;;;3.40;;
35891;SDS011;21993;42.672;23.296;2023-09-12T03:24:57;5.27;;;3.77;;
35891;SDS011;21993;42.672;23.296;2023-09-12T03:27:22;10.20;;;4.80;;
35891;SDS011;21993;42.672;23.296;2023-09-12T03:29:47;13.07;;;4.30;;
35891;SDS011;21993;42.672;23.296;2023-09-12T03:32:13;9.90;;;4.10;;
35891;SDS011;21993;42.672;23.296;2023-09-12T03:34:38;7.27;;;3.70;;
35891;SDS011;21993;42.672;23.296;2023-09-12T03:37:04;7.07;;;3.83;;
35891;SDS011;21993;42.672;23.296;2023-09-12T03:39:29;6.47;;;4.17;;
35891;SDS011;21993;42.672;23.296;2023-09-12T03:41:54;6.40;;;4.10;;
35891;SDS011;21993;42.672;23.296;2023-09-12T03:44:20;11.77;;;4.50;;
35891;SDS011;21993;42.672;23.296;2023-09-12T03:46:45;7.70;;;4.20;;
35891;SDS011;21993;42.672;23.296;2023-09-12T03:49:10;9.27;;;4.00;;
35891;SDS011;21993;42.672;23.296;2023-09-12T03:51:36;8.80;;;4.93;;
35891;SDS011;21993;42.672;23.296;2023-09-12T03:54:03;7.80;;;3.97;;
35891;SDS011;21993;42.672;23.296;2023-09-12T03:56:28;8.53;;;4.10;;
35891;SDS011;21993;42.672;23.296;2023-09-12T03:58:53;5.67;;;4.20;;
35891;SDS011;21993;42.672;23.296;2023-09-12T04:01:22;7.60;;;4.67;;
35891;SDS011;21993;42.672;23.296;2023-09-12T04:03:48;6.90;;;3.93;;
35891;SDS011;21993;42.672;23.296;2023-09-12T04:06:13;8.57;;;3.97;;
35891;SDS011;21993;42.672;23.296;2023-09-12T04:08:38;8.00;;;5.13;;
35891;SDS011;21993;42.672;23.296;2023-09-12T04:11:04;6.83;;;4.53;;
35891;SDS011;21993;42.672;23.296;2023-09-12T04:13:30;8.10;;;4.53;;
35891;SDS011;21993;42.672;23.296;2023-09-12T04:15:55;11.37;;;4.07;;
35891;SDS011;21993;42.672;23.296;2023-09-12T04:18:21;6.87;;;4.30;;
35891;SDS011;21993;42.672;23.296;2023-09-12T04:20:46;7.67;;;4.27;;
35891;SDS011;21993;42.672;23.296;2023-09-12T04:23:11;9.67;;;4.43;;
35891;SDS011;21993;42.672;23.296;2023-09-12T04:25:37;9.13;;;4.90;;
35891;SDS011;21993;42.672;23.296;2023-09-12T04:28:02;12.83;;;4.83;;
35891;SDS011;21993;42.672;23.296;2023-09-12T04:30:28;8.47;;;4.97;;
35891;SDS011;21993;42.672;23.296;2023-09-12T04:32:53;10.47;;;4.83;;
35891;SDS011;21993;42.672;23.296;2023-09-12T04:35:19;14.07;;;6.77;;
35891;SDS011;21993;42.672;23.296;2023-09-12T04:37:46;10.00;;;5.23;;
35891;SDS011;21993;42.672;23.296;2023-09-12T04:40:12;11.70;;;5.00;;
35891;SDS011;21993;42.672;23.296;2023-09-12T04:42:38;14.03;;;5.67;;
35891;SDS011;21993;42.672;23.296;2023-09-12T04:45:03;10.83;;;6.23;;
35891;SDS011;21993;42.672;23.296;2023-09-12T04:47:29;12.40;;;5.60;;
35891;SDS011;21993;42.672;23.296;2023-09-12T04:49:54;8.50;;;5.27;;
35891;SDS011;21993;42.672;23.296;2023-09-12T04:52:20;6.30;;;4.93;;
35891;SDS011;21993;42.672;23.296;2023-09-12T04:54:45;9.53;;;5.97;;
35891;SDS011;21993;42.672;23.296;2023-09-12T04:57:11;11.80;;;6.00;;
35891;SDS011;21993;42.672;23.296;2023-09-12T04:59:37;9.57;;;5.97;;
35891;SDS011;21993;42.672;23.296;2023-09-12T05:02:02;10.27;;;5.43;;
35891;SDS011;21993;42.672;23.296;2023-09-12T05:04:28;9.27;;;5.50;;
35891;SDS011;21993;42.672;23.296;2023-09-12T05:06:53;9.03;;;4.87;;
35891;SDS011;21993;42.672;23.296;2023-09-12T05:09:19;7.43;;;5.50;;
35891;SDS011;21993;42.672;23.296;2023-09-12T05:11:44;7.57;;;5.47;;
35891;SDS011;21993;42.672;23.296;2023-09-12T05:14:09;7.77;;;5.03;;
35891;SDS011;21993;42.672;23.296;2023-09-12T05:16:35;9.50;;;5.43;;
35891;SDS011;21993;42.672;23.296;2023-09-12T05:19:00;11.83;;;5.90;;
35891;SDS011;21993;42.672;23.296;2023-09-12T05:21:25;13.83;;;6.57;;
35891;SDS011;21993;42.672;23.296;2023-09-12T05:23:51;7.97;;;5.47;;
35891;SDS011;21993;42.672;23.296;2023-09-12T05:26:16;14.73;;;5.57;;
35891;SDS011;21993;42.672;23.296;2023-09-12T05:28:42;12.10;;;6.17;;
35891;SDS011;21993;42.672;23.296;2023-09-12T05:31:07;7.43;;;5.27;;
35891;SDS011;21993;42.672;23.296;2023-09-12T05:33:32;9.37;;;6.40;;
35891;SDS011;21993;42.672;23.296;2023-09-12T05:35:58;9.23;;;6.50;;
35891;SDS011;21993;42.672;23.296;2023-09-12T05:38:23;8.53;;;5.37;;
35891;SDS011;21993;42.672;23.296;2023-09-12T05:40:48;12.50;;;5.43;;
35891;SDS011;21993;42.672;23.296;2023-09-12T05:43:15;8.63;;;5.90;;
35891;SDS011;21993;42.672;23.296;2023-09-12T05:45:41;10.27;;;6.47;;
35891;SDS011;21993;42.672;23.296;2023-09-12T05:48:06;12.97;;;6.00;;
35891;SDS011;21993;42.672;23.296;2023-09-12T05:50:32;10.07;;;5.47;;
35891;SDS011;21993;42.672;23.296;2023-09-12T05:52:57;11.53;;;5.80;;
35891;SDS011;21993;42.672;23.296;2023-09-12T05:55:22;10.33;;;5.40;;
35891;SDS011;21993;42.672;23.296;2023-09-12T05:57:49;8.63;;;5.37;;
35891;SDS011;21993;42.672;23.296;2023-09-12T06:00:18;9.23;;;5.60;;
35891;SDS011;21993;42.672;23.296;2023-09-12T06:02:44;7.67;;;5.70;;
35891;SDS011;21993;42.672;23.296;2023-09-12T06:05:10;9.73;;;5.33;;
35891;SDS011;21993;42.672;23.296;2023-09-12T06:07:36;9.20;;;5.70;;
35891;SDS011;21993;42.672;23.296;2023-09-12T06:10:04;10.07;;;5.90;;
35891;SDS011;21993;42.672;23.296;2023-09-12T06:12:31;14.90;;;7.20;;
35891;SDS011;21993;42.672;23.296;2023-09-12T06:14:58;11.17;;;7.27;;
35891;SDS011;21993;42.672;23.296;2023-09-12T06:17:24;11.37;;;6.33;;
35891;SDS011;21993;42.672;23.296;2023-09-12T06:19:50;11.23;;;6.20;;
35891;SDS011;21993;42.672;23.296;2023-09-12T06:22:16;10.37;;;6.90;;
35891;SDS011;21993;42.672;23.296;2023-09-12T06:24:42;10.23;;;7.30;;
35891;SDS011;21993;42.672;23.296;2023-09-12T06:27:08;12.17;;;6.50;;
35891;SDS011;21993;42.672;23.296;2023-09-12T06:29:33;12.30;;;6.80;;
35891;SDS011;21993;42.672;23.296;2023-09-12T06:31:58;12.07;;;6.43;;
35891;SDS011;21993;42.672;23.296;2023-09-12T06:34:24;11.47;;;7.23;;
35891;SDS011;21993;42.672;23.296;2023-09-12T06:36:49;12.37;;;7.23;;
35891;SDS011;21993;42.672;23.296;2023-09-12T06:39:14;14.90;;;7.30;;
35891;SDS011;21993;42.672;23.296;2023-09-12T06:41:40;12.50;;;8.43;;
35891;SDS011;21993;42.672;23.296;2023-09-12T06:44:05;12.77;;;7.57;;
35891;SDS011;21993;42.672;23.296;2023-09-12T06:46:32;13.17;;;7.97;;
35891;SDS011;21993;42.672;23.296;2023-09-12T06:49:00;16.27;;;9.90;;
35891;SDS011;21993;42.672;23.296;2023-09-12T06:51:26;16.57;;;8.03;;
35891;SDS011;21993;42.672;23.296;2023-09-12T06:53:52;12.27;;;7.37;;
35891;SDS011;21993;42.672;23.296;2023-09-12T06:56:17;12.57;;;7.60;;
35891;SDS011;21993;42.672;23.296;2023-09-12T06:58:43;19.27;;;11.13;;
35891;SDS011;21993;42.672;23.296;2023-09-12T07:01:08;10.70;;;7.33;;
35891;SDS011;21993;42.672;23.296;2023-09-12T07:03:34;13.67;;;6.97;;
35891;SDS011;21993;42.672;23.296;2023-09-12T07:06:00;11.17;;;6.37;;
35891;SDS011;21993;42.672;23.296;2023-09-12T07:08:26;9.90;;;5.57;;
35891;SDS011;21993;42.672;23.296;2023-09-12T07:10:54;9.60;;;6.30;;
35891;SDS011;21993;42.672;23.296;2023-09-12T07:13:21;8.63;;;5.80;;
35891;SDS011;21993;42.672;23.296;2023-09-12T07:15:47;7.57;;;5.23;;
35891;SDS011;21993;42.672;23.296;2023-09-12T07:18:12;12.10;;;6.07;;
35891;SDS011;21993;42.672;23.296;2023-09-12T07:20:40;11.10;;;6.50;;
35891;SDS011;21993;42.672;23.296;2023-09-12T07:23:05;7.73;;;6.00;;
35891;SDS011;21993;42.672;23.296;2023-09-12T07:25:30;7.43;;;5.47;;
35891;SDS011;21993;42.672;23.296;2023-09-12T07:28:02;10.43;;;6.10;;
35891;SDS011;21993;42.672;23.296;2023-09-12T07:30:28;27.43;;;13.33;;
35891;SDS011;21993;42.672;23.296;2023-09-12T07:32:55;23.93;;;16.20;;
35891;SDS011;21993;42.672;23.296;2023-09-12T07:35:20;11.27;;;6.37;;
35891;SDS011;21993;42.672;23.296;2023-09-12T07:37:48;9.27;;;5.10;;
35891;SDS011;21993;42.672;23.296;2023-09-12T07:40:14;8.13;;;5.47;;
35891;SDS011;21993;42.672;23.296;2023-09-12T07:42:39;11.57;;;6.00;;
35891;SDS011;21993;42.672;23.296;2023-09-12T07:45:06;11.23;;;5.70;;
35891;SDS011;21993;42.672;23.296;2023-09-12T07:47:32;7.93;;;5.50;;
35891;SDS011;21993;42.672;23.296;2023-09-12T07:49:58;16.70;;;6.00;;
35891;SDS011;21993;42.672;23.296;2023-09-12T07:52:25;9.90;;;4.93;;
35891;SDS011;21993;42.672;23.296;2023-09-12T07:54:51;7.83;;;5.07;;
35891;SDS011;21993;42.672;23.296;2023-09-12T07:57:22;10.10;;;4.20;;
35891;SDS011;21993;42.672;23.296;2023-09-12T07:59:47;8.67;;;5.00;;
35891;SDS011;21993;42.672;23.296;2023-09-12T08:02:13;5.33;;;4.20;;
35891;SDS011;21993;42.672;23.296;2023-09-12T08:04:38;9.23;;;4.70;;
35891;SDS011;21993;42.672;23.296;2023-09-12T08:07:03;7.87;;;4.33;;
35891;SDS011;21993;42.672;23.296;2023-09-12T08:09:47;12.27;;;4.87;;
35891;SDS011;21993;42.672;23.296;2023-09-12T08:12:17;7.27;;;4.20;;
35891;SDS011;21993;42.672;23.296;2023-09-12T08:14:44;9.03;;;4.63;;
35891;SDS011;21993;42.672;23.296;2023-09-12T08:17:10;8.47;;;4.37;;
35891;SDS011;21993;42.672;23.296;2023-09-12T08:19:36;5.93;;;4.53;;
35891;SDS011;21993;42.672;23.296;2023-09-12T08:22:01;8.33;;;3.83;;
35891;SDS011;21993;42.672;23.296;2023-09-12T08:24:27;8.20;;;4.50;;
35891;SDS011;21993;42.672;23.296;2023-09-12T08:26:52;5.27;;;4.37;;
35891;SDS011;21993;42.672;23.296;2023-09-12T08:29:19;7.40;;;5.17;;
35891;SDS011;21993;42.672;23.296;2023-09-12T08:31:45;9.43;;;5.03;;
35891;SDS011;21993;42.672;23.296;2023-09-12T08:34:12;5.73;;;4.23;;
35891;SDS011;21993;42.672;23.296;2023-09-12T08:36:37;6.37;;;4.50;;
35891;SDS011;21993;42.672;23.296;2023-09-12T08:39:03;8.50;;;4.80;;
35891;SDS011;21993;42.672;23.296;2023-09-12T08:41:29;7.57;;;4.43;;
35891;SDS011;21993;42.672;23.296;2023-09-12T08:43:54;7.70;;;4.73;;
35891;SDS011;21993;42.672;23.296;2023-09-12T08:46:21;8.10;;;5.77;;
35891;SDS011;21993;42.672;23.296;2023-09-12T08:48:48;8.43;;;4.53;;
35891;SDS011;21993;42.672;23.296;2023-09-12T08:51:14;9.10;;;5.00;;
35891;SDS011;21993;42.672;23.296;2023-09-12T08:53:40;8.93;;;5.07;;
35891;SDS011;21993;42.672;23.296;2023-09-12T08:56:05;8.60;;;4.90;;
35891;SDS011;21993;42.672;23.296;2023-09-12T08:58:32;8.50;;;4.90;;
35891;SDS011;21993;42.672;23.296;2023-09-12T09:00:59;11.60;;;4.93;;
35891;SDS011;21993;42.672;23.296;2023-09-12T09:03:25;11.97;;;7.07;;
35891;SDS011;21993;42.672;23.296;2023-09-12T09:05:52;9.70;;;5.13;;
35891;SDS011;21993;42.672;23.296;2023-09-12T09:08:20;10.77;;;5.47;;
35891;SDS011;21993;42.672;23.296;2023-09-12T09:10:58;9.63;;;4.60;;
35891;SDS011;21993;42.672;23.296;2023-09-12T09:13:27;9.17;;;4.90;;
35891;SDS011;21993;42.672;23.296;2023-09-12T09:18:54;8.53;;;4.53;;
35891;SDS011;21993;42.672;23.296;2023-09-12T09:21:23;5.37;;;4.30;;
35891;SDS011;21993;42.672;23.296;2023-09-12T09:23:51;5.53;;;3.67;;
35891;SDS011;21993;42.672;23.296;2023-09-12T09:26:20;9.50;;;4.70;;
35891;SDS011;21993;42.672;23.296;2023-09-12T09:28:45;6.73;;;4.13;;
35891;SDS011;21993;42.672;23.296;2023-09-12T09:31:34;10.57;;;4.57;;
35891;SDS011;21993;42.672;23.296;2023-09-12T09:34:01;4.40;;;3.63;;
35891;SDS011;21993;42.672;23.296;2023-09-12T09:36:28;6.23;;;4.30;;
35891;SDS011;21993;42.672;23.296;2023-09-12T09:38:54;9.40;;;4.13;;
35891;SDS011;21993;42.672;23.296;2023-09-12T09:41:21;5.17;;;3.50;;
35891;SDS011;21993;42.672;23.296;2023-09-12T09:43:50;7.43;;;4.07;;
35891;SDS011;21993;42.672;23.296;2023-09-12T09:46:17;5.17;;;3.50;;
35891;SDS011;21993;42.672;23.296;2023-09-12T09:48:49;10.73;;;4.50;;
35891;SDS011;21993;42.672;23.296;2023-09-12T09:51:15;7.10;;;5.03;;
35891;SDS011;21993;42.672;23.296;2023-09-12T09:53:41;6.43;;;3.73;;
35891;SDS011;21993;42.672;23.296;2023-09-12T09:58:46;8.80;;;3.70;;
35891;SDS011;21993;42.672;23.296;2023-09-12T10:01:13;8.80;;;4.73;;
35891;SDS011;21993;42.672;23.296;2023-09-12T10:03:44;10.83;;;4.23;;
35891;SDS011;21993;42.672;23.296;2023-09-12T10:06:12;4.80;;;3.37;;
35891;SDS011;21993;42.672;23.296;2023-09-12T10:08:39;9.60;;;7.23;;
35891;SDS011;21993;42.672;23.296;2023-09-12T10:11:05;8.30;;;3.93;;
35891;SDS011;21993;42.672;23.296;2023-09-12T10:13:33;7.20;;;3.53;;
35891;SDS011;21993;42.672;23.296;2023-09-12T10:16:00;4.37;;;3.23;;
35891;SDS011;21993;42.672;23.296;2023-09-12T10:18:29;12.23;;;8.10;;
35891;SDS011;21993;42.672;23.296;2023-09-12T10:21:06;9.50;;;3.70;;
35891;SDS011;21993;42.672;23.296;2023-09-12T10:23:39;5.43;;;3.77;;
35891;SDS011;21993;42.672;23.296;2023-09-12T10:26:10;4.77;;;3.10;;
35891;SDS011;21993;42.672;23.296;2023-09-12T10:28:39;7.13;;;3.23;;
35891;SDS011;21993;42.672;23.296;2023-09-12T10:31:05;6.70;;;3.93;;
35891;SDS011;21993;42.672;23.296;2023-09-12T10:33:33;4.67;;;3.40;;
35891;SDS011;21993;42.672;23.296;2023-09-12T10:35:59;8.50;;;4.83;;
35891;SDS011;21993;42.672;23.296;2023-09-12T10:38:26;6.97;;;3.73;;
35891;SDS011;21993;42.672;23.296;2023-09-12T10:40:54;4.00;;;3.60;;
35891;SDS011;21993;42.672;23.296;2023-09-12T10:43:21;6.53;;;3.30;;
35891;SDS011;21993;42.672;23.296;2023-09-12T10:45:47;7.50;;;3.37;;
35891;SDS011;21993;42.672;23.296;2023-09-12T10:48:14;6.07;;;3.43;;
35891;SDS011;21993;42.672;23.296;2023-09-12T10:50:39;9.57;;;3.63;;
35891;SDS011;21993;42.672;23.296;2023-09-12T10:53:10;4.70;;;3.50;;
35891;SDS011;21993;42.672;23.296;2023-09-12T10:55:35;5.63;;;3.70;;
35891;SDS011;21993;42.672;23.296;2023-09-12T10:58:02;6.17;;;3.10;;
35891;SDS011;21993;42.672;23.296;2023-09-12T11:00:32;5.20;;;3.50;;
35891;SDS011;21993;42.672;23.296;2023-09-12T11:02:58;5.03;;;3.40;;
35891;SDS011;21993;42.672;23.296;2023-09-12T11:08:00;5.17;;;3.30;;
35891;SDS011;21993;42.672;23.296;2023-09-12T11:10:27;6.17;;;3.77;;
35891;SDS011;21993;42.672;23.296;2023-09-12T11:12:57;3.83;;;3.20;;
35891;SDS011;21993;42.672;23.296;2023-09-12T11:15:24;6.07;;;3.50;;
35891;SDS011;21993;42.672;23.296;2023-09-12T11:18:03;6.43;;;3.33;;
35891;SDS011;21993;42.672;23.296;2023-09-12T11:20:49;4.30;;;3.30;;
35891;SDS011;21993;42.672;23.296;2023-09-12T11:23:15;4.27;;;3.13;;
35891;SDS011;21993;42.672;23.296;2023-09-12T11:25:40;6.03;;;3.30;;
35891;SDS011;21993;42.672;23.296;2023-09-12T11:28:05;4.53;;;3.43;;
35891;SDS011;21993;42.672;23.296;2023-09-12T11:30:31;4.10;;;3.30;;
35891;SDS011;21993;42.672;23.296;2023-09-12T11:32:57;4.60;;;3.30;;
35891;SDS011;21993;42.672;23.296;2023-09-12T11:35:26;7.90;;;3.57;;
35891;SDS011;21993;42.672;23.296;2023-09-12T11:37:55;5.03;;;3.40;;
35891;SDS011;21993;42.672;23.296;2023-09-12T11:40:22;7.87;;;3.77;;
35891;SDS011;21993;42.672;23.296;2023-09-12T11:43:08;5.70;;;3.27;;
35891;SDS011;21993;42.672;23.296;2023-09-12T11:45:43;5.43;;;3.30;;
35891;SDS011;21993;42.672;23.296;2023-09-12T11:48:09;5.93;;;3.47;;
35891;SDS011;21993;42.672;23.296;2023-09-12T11:50:35;5.13;;;3.70;;
35891;SDS011;21993;42.672;23.296;2023-09-12T11:53:04;4.93;;;3.37;;
35891;SDS011;21993;42.672;23.296;2023-09-12T11:55:32;6.50;;;3.60;;
35891;SDS011;21993;42.672;23.296;2023-09-12T11:58:00;8.87;;;3.50;;
35891;SDS011;21993;42.672;23.296;2023-09-12T12:00:25;3.40;;;3.10;;
35891;SDS011;21993;42.672;23.296;2023-09-12T12:02:52;7.13;;;3.83;;
35891;SDS011;21993;42.672;23.296;2023-09-12T12:05:18;8.37;;;3.80;;
35891;SDS011;21993;42.672;23.296;2023-09-12T12:07:44;4.13;;;3.23;;
35891;SDS011;21993;42.672;23.296;2023-09-12T12:10:11;7.37;;;3.37;;
35891;SDS011;21993;42.672;23.296;2023-09-12T12:12:37;5.67;;;3.70;;
35891;SDS011;21993;42.672;23.296;2023-09-12T12:15:02;4.23;;;3.60;;
35891;SDS011;21993;42.672;23.296;2023-09-12T12:17:28;8.13;;;3.80;;
35891;SDS011;21993;42.672;23.296;2023-09-12T12:19:53;6.70;;;3.73;;
35891;SDS011;21993;42.672;23.296;2023-09-12T12:22:19;7.93;;;3.17;;
35891;SDS011;21993;42.672;23.296;2023-09-12T12:24:45;6.70;;;3.83;;
35891;SDS011;21993;42.672;23.296;2023-09-12T12:27:14;4.30;;;3.63;;
35891;SDS011;21993;42.672;23.296;2023-09-12T12:29:40;3.83;;;2.90;;
35891;SDS011;21993;42.672;23.296;2023-09-12T12:32:07;4.93;;;3.57;;
35891;SDS011;21993;42.672;23.296;2023-09-12T12:34:34;6.77;;;3.70;;
35891;SDS011;21993;42.672;23.296;2023-09-12T12:37:00;5.10;;;3.33;;
35891;SDS011;21993;42.672;23.296;2023-09-12T12:39:25;8.93;;;3.57;;
35891;SDS011;21993;42.672;23.296;2023-09-12T12:41:52;4.27;;;3.30;;
35891;SDS011;21993;42.672;23.296;2023-09-12T12:44:19;5.23;;;3.60;;
35891;SDS011;21993;42.672;23.296;2023-09-12T12:46:51;6.97;;;3.33;;
35891;SDS011;21993;42.672;23.296;2023-09-12T12:49:18;6.67;;;3.87;;
35891;SDS011;21993;42.672;23.296;2023-09-12T12:51:45;5.43;;;3.70;;
35891;SDS011;21993;42.672;23.296;2023-09-12T12:54:11;17.13;;;10.07;;
35891;SDS011;21993;42.672;23.296;2023-09-12T12:56:36;8.23;;;4.80;;
35891;SDS011;21993;42.672;23.296;2023-09-12T12:59:06;5.07;;;3.63;;
35891;SDS011;21993;42.672;23.296;2023-09-12T13:01:36;6.27;;;3.80;;
35891;SDS011;21993;42.672;23.296;2023-09-12T13:04:06;4.57;;;3.80;;
35891;SDS011;21993;42.672;23.296;2023-09-12T13:06:34;5.40;;;3.63;;
35891;SDS011;21993;42.672;23.296;2023-09-12T13:09:04;3.93;;;3.37;;
35891;SDS011;21993;42.672;23.296;2023-09-12T13:11:33;5.37;;;3.40;;
35891;SDS011;21993;42.672;23.296;2023-09-12T13:14:02;6.43;;;3.50;;
35891;SDS011;21993;42.672;23.296;2023-09-12T13:16:35;5.60;;;3.50;;
35891;SDS011;21993;42.672;23.296;2023-09-12T13:19:01;7.87;;;3.37;;
35891;SDS011;21993;42.672;23.296;2023-09-12T13:21:26;4.93;;;4.40;;
35891;SDS011;21993;42.672;23.296;2023-09-12T13:23:53;10.67;;;8.27;;
35891;SDS011;21993;42.672;23.296;2023-09-12T13:26:18;6.13;;;3.40;;
35891;SDS011;21993;42.672;23.296;2023-09-12T13:28:44;7.33;;;3.83;;
35891;SDS011;21993;42.672;23.296;2023-09-12T13:31:09;5.50;;;3.40;;
35891;SDS011;21993;42.672;23.296;2023-09-12T13:33:35;7.07;;;3.33;;
35891;SDS011;21993;42.672;23.296;2023-09-12T13:36:00;4.03;;;3.17;;
35891;SDS011;21993;42.672;23.296;2023-09-12T13:38:26;6.30;;;3.30;;
35891;SDS011;21993;42.672;23.296;2023-09-12T13:40:51;5.53;;;3.60;;
35891;SDS011;21993;42.672;23.296;2023-09-12T13:43:16;5.87;;;3.57;;
35891;SDS011;21993;42.672;23.296;2023-09-12T13:45:42;8.17;;;3.83;;
35891;SDS011;21993;42.672;23.296;2023-09-12T13:48:07;9.30;;;3.43;;
35891;SDS011;21993;42.672;23.296;2023-09-12T13:50:33;4.93;;;3.43;;
35891;SDS011;21993;42.672;23.296;2023-09-12T13:52:59;7.13;;;3.67;;
35891;SDS011;21993;42.672;23.296;2023-09-12T13:55:31;6.37;;;3.60;;
35891;SDS011;21993;42.672;23.296;2023-09-12T13:57:57;6.73;;;4.07;;
35891;SDS011;21993;42.672;23.296;2023-09-12T14:00:23;7.23;;;3.50;;
35891;SDS011;21993;42.672;23.296;2023-09-12T14:02:49;5.33;;;3.53;;
35891;SDS011;21993;42.672;23.296;2023-09-12T14:05:14;6.40;;;3.67;;
35891;SDS011;21993;42.672;23.296;2023-09-12T14:07:40;5.83;;;3.93;;
35891;SDS011;21993;42.672;23.296;2023-09-12T14:10:08;4.80;;;3.40;;
35891;SDS011;21993;42.672;23.296;2023-09-12T14:12:34;5.37;;;3.70;;
35891;SDS011;21993;42.672;23.296;2023-09-12T14:14:59;5.70;;;3.73;;
35891;SDS011;21993;42.672;23.296;2023-09-12T14:17:25;10.20;;;3.93;;
35891;SDS011;21993;42.672;23.296;2023-09-12T14:19:52;4.27;;;3.20;;
35891;SDS011;21993;42.672;23.296;2023-09-12T14:22:17;4.80;;;3.77;;
35891;SDS011;21993;42.672;23.296;2023-09-12T14:24:42;9.30;;;3.90;;
35891;SDS011;21993;42.672;23.296;2023-09-12T14:27:08;8.00;;;3.43;;
35891;SDS011;21993;42.672;23.296;2023-09-12T14:29:33;5.17;;;3.70;;
35891;SDS011;21993;42.672;23.296;2023-09-12T14:31:59;14.17;;;4.77;;
35891;SDS011;21993;42.672;23.296;2023-09-12T14:34:27;8.60;;;4.37;;
35891;SDS011;21993;42.672;23.296;2023-09-12T14:36:56;6.80;;;3.70;;
35891;SDS011;21993;42.672;23.296;2023-09-12T14:39:21;4.97;;;3.60;;
35891;SDS011;21993;42.672;23.296;2023-09-12T14:41:47;11.67;;;6.73;;